Time;durP1;ratioP1;P1;durP2;ratioP2;P2;SDS_P1;SDS_P2;PMS_P1;PMS_P2;Temp;Humidity;BMP_temperature;BMP_pressure;BME280_temperature;BME280_humidity;BME280_pressure;Samples;Min_cycle;Max_cycle;Signal;HPM_P1;HPM_P2
2023/08/07 00:01:39;;;;;;;1.90;0.80;;;15.80;99.90;;;;;;940279;147;27301;-75
2023/08/07 00:04:06;;;;;;;1.15;1.00;;;15.80;99.90;;;;;;934866;147;27387;-75
2023/08/07 00:06:33;;;;;;;1.93;0.90;;;15.80;99.90;;;;;;951890;147;27332;-75
2023/08/07 00:09:53;;;;;;;0.80;0.78;;;15.80;99.90;;;;;;959156;147;27388;-75
2023/08/07 00:12:19;;;;;;;0.88;0.88;;;15.80;99.90;;;;;;950052;147;27371;-75
2023/08/07 00:14:46;;;;;;;1.75;1.57;;;15.80;99.90;;;;;;953395;147;27242;-74
2023/08/07 00:17:12;;;;;;;1.32;1.00;;;15.70;99.90;;;;;;954796;149;27408;-74
2023/08/07 00:19:39;;;;;;;1.17;0.80;;;15.70;99.90;;;;;;946818;150;27364;-75
2023/08/07 00:22:06;;;;;;;1.70;1.00;;;15.70;99.90;;;;;;961939;145;27258;-75
2023/08/07 00:24:32;;;;;;;1.65;0.85;;;15.70;99.90;;;;;;961482;147;27444;-74
2023/08/07 00:26:59;;;;;;;2.90;0.85;;;15.70;99.90;;;;;;960610;145;27537;-75
2023/08/07 00:29:25;;;;;;;1.22;0.82;;;15.70;99.90;;;;;;952358;149;27353;-75
2023/08/07 00:31:52;;;;;;;1.62;1.47;;;15.70;99.90;;;;;;939032;148;27363;-75
2023/08/07 00:34:18;;;;;;;2.17;0.90;;;15.70;99.90;;;;;;959974;145;27358;-74
2023/08/07 00:36:45;;;;;;;1.27;1.00;;;15.70;99.90;;;;;;962311;145;27396;-74
2023/08/07 00:39:12;;;;;;;1.47;0.80;;;15.70;99.90;;;;;;945017;148;27305;-74
2023/08/07 00:41:38;;;;;;;0.83;0.80;;;15.70;99.90;;;;;;941275;148;27492;-75
2023/08/07 00:44:06;;;;;;;1.55;1.00;;;15.70;99.90;;;;;;949460;149;28257;-75
2023/08/07 00:46:31;;;;;;;1.27;1.00;;;15.70;99.90;;;;;;950136;147;27315;-75
2023/08/07 00:48:58;;;;;;;0.67;0.63;;;15.70;99.90;;;;;;951704;149;27245;-74
2023/08/07 00:51:25;;;;;;;2.02;0.82;;;15.70;99.90;;;;;;953208;149;27447;-74
2023/08/07 00:53:51;;;;;;;4.50;1.03;;;15.70;99.90;;;;;;960379;145;27403;-74
2023/08/07 00:56:18;;;;;;;1.80;0.90;;;15.70;99.90;;;;;;945484;148;27426;-74
2023/08/07 00:58:45;;;;;;;1.13;0.80;;;15.70;99.90;;;;;;945632;148;27346;-74
2023/08/07 01:01:11;;;;;;;1.17;0.82;;;15.70;99.90;;;;;;951832;147;27402;-74
2023/08/07 01:03:38;;;;;;;1.17;1.00;;;15.70;99.90;;;;;;943807;149;27352;-74
2023/08/07 01:06:04;;;;;;;1.23;0.93;;;15.70;99.90;;;;;;944496;148;27363;-74
2023/08/07 01:08:31;;;;;;;1.92;0.80;;;15.70;99.90;;;;;;955543;148;27408;-74
2023/08/07 01:11:17;;;;;;;3.77;1.33;;;15.70;99.90;;;;;;954463;148;27368;-74
2023/08/07 01:14:01;;;;;;;1.00;0.98;;;15.60;99.90;;;;;;953240;148;27353;-74
2023/08/07 01:16:36;;;;;;;1.07;1.00;;;15.60;99.90;;;;;;955651;148;27380;-74
2023/08/07 01:19:03;;;;;;;1.00;0.90;;;15.60;99.90;;;;;;952092;148;27448;-73
2023/08/07 01:21:29;;;;;;;2.05;1.20;;;15.60;99.90;;;;;;954697;148;27674;-73
2023/08/07 01:23:56;;;;;;;0.97;0.90;;;15.60;99.90;;;;;;954177;148;27385;-74
2023/08/07 01:26:22;;;;;;;2.87;1.07;;;15.60;99.90;;;;;;956548;148;27266;-74
2023/08/07 01:28:59;;;;;;;2.83;1.00;;;15.60;99.90;;;;;;955409;148;27449;-73
2023/08/07 01:31:25;;;;;;;2.77;1.05;;;15.60;99.90;;;;;;955859;148;27464;-73
2023/08/07 01:33:52;;;;;;;4.27;1.13;;;15.60;99.90;;;;;;955054;148;27319;-73
2023/08/07 01:36:18;;;;;;;2.40;1.20;;;15.60;99.90;;;;;;954483;148;27441;-74
2023/08/07 01:38:45;;;;;;;1.70;1.00;;;15.60;99.90;;;;;;954978;148;27300;-73
2023/08/07 01:41:11;;;;;;;1.87;1.40;;;15.60;99.90;;;;;;957835;148;27490;-73
2023/08/07 01:43:38;;;;;;;1.07;0.97;;;15.60;99.90;;;;;;957063;148;27335;-74
2023/08/07 01:46:06;;;;;;;1.17;1.07;;;15.60;99.90;;;;;;956596;148;27332;-74
2023/08/07 01:48:31;;;;;;;0.95;0.88;;;15.60;99.90;;;;;;954412;148;27277;-73
2023/08/07 01:50:58;;;;;;;0.70;0.70;;;15.60;99.90;;;;;;955028;148;27356;-75
2023/08/07 01:53:24;;;;;;;2.20;0.90;;;15.60;99.90;;;;;;955621;148;27367;-73
2023/08/07 01:55:51;;;;;;;1.70;0.80;;;15.60;99.90;;;;;;954584;148;27343;-74
2023/08/07 01:58:17;;;;;;;1.10;0.90;;;15.60;99.90;;;;;;954385;148;27796;-73
2023/08/07 02:00:44;;;;;;;2.33;1.20;;;15.60;99.90;;;;;;955039;148;27349;-74
2023/08/07 02:03:11;;;;;;;2.63;1.17;;;15.60;99.90;;;;;;953673;148;27355;-73
2023/08/07 02:05:37;;;;;;;1.87;1.10;;;15.60;99.90;;;;;;955420;148;27296;-75
2023/08/07 02:08:04;;;;;;;1.50;1.10;;;15.60;99.90;;;;;;953408;148;27815;-74
2023/08/07 02:10:30;;;;;;;3.10;1.50;;;15.50;99.90;;;;;;956364;148;27368;-74
2023/08/07 02:12:57;;;;;;;1.70;1.00;;;15.50;99.90;;;;;;957243;148;27438;-75
2023/08/07 02:15:24;;;;;;;3.17;1.20;;;15.60;99.90;;;;;;954964;148;27368;-73
2023/08/07 02:17:50;;;;;;;1.13;1.03;;;15.60;99.90;;;;;;952171;146;27360;-74
2023/08/07 02:22:53;;;;;;;1.73;1.30;;;15.60;99.90;;;;;;974210;145;37855;-73
2023/08/07 02:25:19;;;;;;;2.13;1.33;;;15.50;99.90;;;;;;965867;145;27354;-73
2023/08/07 02:27:46;;;;;;;2.43;1.27;;;15.50;99.90;;;;;;963641;145;27920;-73
2023/08/07 02:30:13;;;;;;;3.83;1.50;;;15.50;99.90;;;;;;964165;146;27327;-73
2023/08/07 02:32:42;;;;;;;2.10;1.37;;;15.50;99.90;;;;;;967469;145;27709;-76
2023/08/07 02:35:06;;;;;;;1.35;1.22;;;15.50;99.90;;;;;;965445;145;27359;-75
2023/08/07 02:37:32;;;;;;;3.07;1.70;;;15.50;99.90;;;;;;965599;146;27349;-75
2023/08/07 02:39:59;;;;;;;1.63;1.50;;;15.50;99.90;;;;;;964785;145;27407;-74
2023/08/07 02:42:25;;;;;;;2.93;1.50;;;15.50;99.90;;;;;;965356;146;27393;-75
2023/08/07 02:44:52;;;;;;;3.37;1.62;;;15.50;99.90;;;;;;966801;146;27371;-75
2023/08/07 02:47:19;;;;;;;2.50;1.40;;;15.50;99.90;;;;;;966034;145;27298;-76
2023/08/07 02:49:45;;;;;;;1.42;1.17;;;15.40;99.90;;;;;;967196;145;27329;-75
2023/08/07 02:52:12;;;;;;;3.87;1.40;;;15.50;99.90;;;;;;966601;146;27323;-76
2023/08/07 02:54:38;;;;;;;1.10;1.00;;;15.40;99.90;;;;;;966447;146;27311;-76
2023/08/07 02:57:05;;;;;;;2.65;1.40;;;15.50;99.90;;;;;;964453;145;27410;-76
2023/08/07 02:59:32;;;;;;;3.27;1.42;;;15.50;99.90;;;;;;965409;145;27318;-75
2023/08/07 03:01:58;;;;;;;3.30;1.67;;;15.50;99.90;;;;;;963572;145;27473;-75
2023/08/07 03:04:25;;;;;;;3.92;1.77;;;15.40;99.90;;;;;;966568;145;27338;-76
2023/08/07 03:06:51;;;;;;;4.75;1.80;;;15.50;99.90;;;;;;966470;145;27309;-76
2023/08/07 03:09:18;;;;;;;4.12;1.27;;;15.40;99.90;;;;;;966662;145;27334;-76
2023/08/07 03:11:45;;;;;;;2.27;1.47;;;15.40;99.90;;;;;;969566;145;27777;-76
2023/08/07 03:14:11;;;;;;;3.27;1.65;;;15.40;99.90;;;;;;969293;145;27300;-77
2023/08/07 03:16:38;;;;;;;2.10;1.80;;;15.50;99.90;;;;;;968051;145;27374;-77
2023/08/07 03:19:04;;;;;;;2.08;1.65;;;15.40;99.90;;;;;;968347;146;27290;-77
2023/08/07 03:21:31;;;;;;;2.52;1.70;;;15.40;99.90;;;;;;967902;145;27432;-76
2023/08/07 03:23:58;;;;;;;3.20;2.03;;;15.50;99.90;;;;;;962547;145;27314;-78
2023/08/07 03:26:24;;;;;;;2.50;1.50;;;15.50;99.90;;;;;;963287;146;27269;-77
2023/08/07 03:28:51;;;;;;;2.20;1.50;;;15.50;99.90;;;;;;961380;145;27291;-77
2023/08/07 03:31:17;;;;;;;2.67;1.83;;;15.50;99.90;;;;;;940682;147;27309;-76
2023/08/07 03:33:44;;;;;;;4.37;1.70;;;15.50;99.90;;;;;;956005;144;27429;-77
2023/08/07 03:36:10;;;;;;;3.67;1.40;;;15.50;99.90;;;;;;959235;144;27449;-77
2023/08/07 03:38:37;;;;;;;2.70;1.63;;;15.50;99.90;;;;;;933035;147;27401;-77
2023/08/07 03:41:04;;;;;;;2.17;1.60;;;15.40;99.90;;;;;;952407;145;27281;-76
2023/08/07 03:43:30;;;;;;;4.90;1.82;;;15.40;99.90;;;;;;950999;147;27334;-76
2023/08/07 03:45:57;;;;;;;3.58;1.90;;;15.40;99.90;;;;;;953382;147;27440;-76
2023/08/07 03:48:23;;;;;;;2.58;1.50;;;15.40;99.90;;;;;;951400;147;27418;-77
2023/08/07 03:50:50;;;;;;;2.80;1.80;;;15.40;99.90;;;;;;954346;147;27432;-77
2023/08/07 03:53:17;;;;;;;2.93;1.73;;;15.40;99.90;;;;;;951226;147;27373;-76
2023/08/07 03:55:45;;;;;;;2.93;1.50;;;15.40;99.90;;;;;;950817;147;27281;-77
2023/08/07 03:58:10;;;;;;;4.40;1.80;;;15.40;99.90;;;;;;950745;147;27370;-77
2023/08/07 04:00:36;;;;;;;3.05;1.52;;;15.40;99.90;;;;;;951982;147;28071;-77
2023/08/07 04:03:03;;;;;;;2.30;1.77;;;15.40;99.90;;;;;;950228;147;27698;-77
2023/08/07 04:05:30;;;;;;;2.33;1.95;;;15.30;99.90;;;;;;951430;147;27401;-77
2023/08/07 04:07:56;;;;;;;2.30;1.95;;;15.30;99.90;;;;;;958297;144;27350;-76
2023/08/07 04:10:23;;;;;;;4.33;1.60;;;15.30;99.90;;;;;;957995;144;27344;-77
2023/08/07 04:12:49;;;;;;;2.57;1.70;;;15.30;99.90;;;;;;956670;144;27272;-77
2023/08/07 04:15:16;;;;;;;2.40;1.37;;;15.30;99.90;;;;;;957431;144;27305;-76
2023/08/07 04:17:42;;;;;;;3.23;2.03;;;15.30;99.90;;;;;;946144;147;27315;-76
2023/08/07 04:20:10;;;;;;;3.17;1.85;;;15.30;99.90;;;;;;951663;147;27514;-76
2023/08/07 04:22:36;;;;;;;3.20;1.83;;;15.30;99.90;;;;;;952109;147;27405;-75
2023/08/07 04:25:02;;;;;;;1.87;1.65;;;15.30;99.90;;;;;;948594;149;27322;-76
2023/08/07 04:27:29;;;;;;;2.02;1.80;;;15.30;99.90;;;;;;948139;147;27287;-76
2023/08/07 04:29:55;;;;;;;2.67;1.60;;;15.30;99.90;;;;;;960402;145;27386;-76
2023/08/07 04:32:22;;;;;;;3.42;1.82;;;15.30;99.90;;;;;;962755;146;27372;-75
2023/08/07 04:34:49;;;;;;;3.02;1.77;;;15.30;99.90;;;;;;962381;145;28626;-75
2023/08/07 04:37:15;;;;;;;3.42;2.10;;;15.30;99.90;;;;;;936366;148;27317;-75
2023/08/07 04:39:42;;;;;;;2.87;2.20;;;15.40;99.90;;;;;;955030;147;27444;-76
2023/08/07 04:42:08;;;;;;;2.20;1.93;;;15.40;99.90;;;;;;943233;150;27413;-76
2023/08/07 04:44:35;;;;;;;2.12;1.90;;;15.40;99.90;;;;;;941924;148;27370;-75
2023/08/07 04:47:02;;;;;;;5.37;2.20;;;15.40;99.90;;;;;;944125;150;27337;-76
2023/08/07 04:49:28;;;;;;;2.40;1.87;;;15.40;99.90;;;;;;947870;148;27409;-75
2023/08/07 04:51:55;;;;;;;2.10;1.72;;;15.40;99.90;;;;;;962226;145;27302;-76
2023/08/07 04:54:21;;;;;;;3.08;1.50;;;15.40;99.90;;;;;;946102;147;27335;-75
2023/08/07 04:56:48;;;;;;;3.45;2.12;;;15.40;99.90;;;;;;944970;148;28497;-75
2023/08/07 04:59:14;;;;;;;2.02;1.85;;;15.40;99.90;;;;;;945453;148;27261;-76
2023/08/07 05:01:41;;;;;;;2.42;1.75;;;15.50;99.90;;;;;;947284;148;27365;-75
2023/08/07 05:04:08;;;;;;;2.77;1.65;;;15.50;99.90;;;;;;955919;146;27293;-76
2023/08/07 05:06:34;;;;;;;3.15;1.60;;;15.50;99.90;;;;;;947570;149;27343;-75
2023/08/07 05:09:02;;;;;;;2.87;1.85;;;15.50;99.90;;;;;;947911;149;27388;-75
2023/08/07 05:11:27;;;;;;;3.98;1.90;;;15.50;99.90;;;;;;947669;149;27437;-75
2023/08/07 05:13:54;;;;;;;2.10;1.85;;;15.50;99.90;;;;;;948673;149;27316;-76
2023/08/07 05:16:21;;;;;;;2.75;1.72;;;15.50;99.90;;;;;;948648;149;27442;-75
2023/08/07 05:18:47;;;;;;;3.67;1.65;;;15.60;99.90;;;;;;946658;149;27340;-75
2023/08/07 05:21:14;;;;;;;1.62;1.52;;;15.60;99.90;;;;;;947299;149;27325;-76
2023/08/07 05:23:40;;;;;;;3.85;1.65;;;15.60;99.90;;;;;;967826;143;27316;-76
2023/08/07 05:26:07;;;;;;;1.98;1.65;;;15.70;99.90;;;;;;974617;143;27391;-76
2023/08/07 05:28:34;;;;;;;3.27;1.77;;;15.70;99.90;;;;;;962838;146;27829;-77
2023/08/07 05:31:00;;;;;;;1.65;1.55;;;15.70;99.90;;;;;;955429;145;29033;-77
2023/08/07 05:33:27;;;;;;;4.42;1.90;;;15.70;99.90;;;;;;958261;146;27360;-77
2023/08/07 05:35:55;;;;;;;2.17;1.50;;;15.70;99.90;;;;;;970429;143;27248;-77
2023/08/07 05:38:20;;;;;;;2.35;1.60;;;15.70;99.90;;;;;;955596;146;27825;-77
2023/08/07 05:40:47;;;;;;;4.85;2.45;;;15.70;99.90;;;;;;971728;143;27324;-77
2023/08/07 05:43:13;;;;;;;3.37;1.80;;;15.80;99.90;;;;;;972062;143;27382;-76
2023/08/07 05:45:40;;;;;;;3.37;1.70;;;15.80;99.90;;;;;;961518;146;27307;-77
2023/08/07 05:48:06;;;;;;;3.70;2.40;;;15.80;99.90;;;;;;969850;146;27307;-77
2023/08/07 05:50:33;;;;;;;4.78;2.12;;;15.80;99.90;;;;;;971290;146;27444;-77
2023/08/07 05:52:59;;;;;;;4.53;2.20;;;15.80;99.90;;;;;;957047;145;27322;-77
2023/08/07 05:55:26;;;;;;;3.50;1.72;;;15.80;99.90;;;;;;967277;144;27324;-77
2023/08/07 05:57:53;;;;;;;2.85;2.00;;;15.80;99.90;;;;;;955745;145;27412;-77
2023/08/07 06:00:19;;;;;;;3.42;2.08;;;15.80;99.90;;;;;;950775;147;27340;-76
2023/08/07 06:02:46;;;;;;;2.08;1.65;;;15.90;99.90;;;;;;971545;143;27349;-76
2023/08/07 06:05:14;;;;;;;2.42;1.70;;;15.90;99.90;;;;;;974219;143;27293;-77
2023/08/07 06:07:39;;;;;;;3.08;1.65;;;15.90;99.90;;;;;;954773;146;27278;-77
2023/08/07 06:10:06;;;;;;;2.20;1.52;;;15.90;99.90;;;;;;971638;143;27250;-76
2023/08/07 06:12:32;;;;;;;3.62;1.90;;;16.00;99.90;;;;;;956838;146;27360;-77
2023/08/07 06:14:59;;;;;;;2.22;1.75;;;16.00;99.90;;;;;;966787;145;27359;-77
2023/08/07 06:17:25;;;;;;;4.22;2.05;;;16.00;99.90;;;;;;970769;146;27314;-77
2023/08/07 06:19:52;;;;;;;2.90;1.82;;;16.00;99.90;;;;;;970335;146;27252;-77
2023/08/07 06:22:19;;;;;;;4.55;1.80;;;16.00;99.90;;;;;;972151;145;27410;-77
2023/08/07 06:24:45;;;;;;;3.42;1.70;;;16.00;99.90;;;;;;967325;145;27460;-76
2023/08/07 06:27:12;;;;;;;4.20;1.85;;;16.10;99.90;;;;;;966657;145;27307;-77
2023/08/07 06:29:38;;;;;;;2.95;1.70;;;16.10;99.90;;;;;;968526;145;27314;-77
2023/08/07 06:32:05;;;;;;;5.42;2.22;;;16.10;99.90;;;;;;948976;147;27321;-77
2023/08/07 06:34:32;;;;;;;3.33;2.08;;;16.10;99.90;;;;;;951556;145;27413;-77
2023/08/07 06:36:58;;;;;;;4.95;1.70;;;16.10;99.90;;;;;;944745;147;27372;-77
2023/08/07 06:39:25;;;;;;;2.77;1.80;;;16.10;99.90;;;;;;957327;144;27426;-75
2023/08/07 06:41:51;;;;;;;2.35;1.90;;;16.10;99.90;;;;;;942920;147;27272;-75
2023/08/07 06:46:58;;;;;;;2.00;1.52;;;16.20;99.90;;;;;;971287;143;34899;-73
2023/08/07 06:49:24;;;;;;;3.45;2.02;;;16.20;99.90;;;;;;955903;145;27444;-75
2023/08/07 06:51:51;;;;;;;2.40;1.22;;;16.30;99.90;;;;;;954014;146;27451;-75
2023/08/07 06:54:18;;;;;;;1.82;1.67;;;16.30;99.90;;;;;;954867;146;27243;-76
2023/08/07 06:56:44;;;;;;;2.52;1.60;;;16.30;99.90;;;;;;954516;146;27336;-75
2023/08/07 06:59:11;;;;;;;2.50;1.50;;;16.40;99.90;;;;;;928440;154;27319;-76
2023/08/07 07:01:37;;;;;;;2.45;1.90;;;16.40;99.90;;;;;;954597;145;27351;-76
2023/08/07 07:04:04;;;;;;;2.87;1.57;;;16.40;99.90;;;;;;953715;149;27347;-76
2023/08/07 07:06:31;;;;;;;3.45;1.57;;;16.50;99.90;;;;;;955045;145;27818;-76
2023/08/07 07:08:57;;;;;;;2.02;1.82;;;16.50;99.90;;;;;;928328;154;27448;-76
2023/08/07 07:11:24;;;;;;;3.33;1.57;;;16.50;99.90;;;;;;946415;148;27739;-77
2023/08/07 07:13:50;;;;;;;3.60;1.62;;;16.50;99.90;;;;;;946084;148;27434;-76
2023/08/07 07:16:21;;;;;;;2.67;1.70;;;16.60;99.90;;;;;;945805;149;27290;-75
2023/08/07 07:18:46;;;;;;;2.58;1.50;;;16.60;99.90;;;;;;947173;148;27304;-76
2023/08/07 07:21:13;;;;;;;2.40;1.40;;;16.60;99.90;;;;;;945588;149;27320;-77
2023/08/07 07:23:39;;;;;;;2.12;1.50;;;16.60;99.90;;;;;;947340;148;27330;-76
2023/08/07 07:26:06;;;;;;;3.52;1.65;;;16.70;99.90;;;;;;945820;149;28628;-75
2023/08/07 07:28:33;;;;;;;2.72;1.70;;;16.70;99.90;;;;;;945944;148;27423;-75
2023/08/07 07:30:59;;;;;;;3.05;1.50;;;16.80;99.90;;;;;;945999;148;27345;-76
2023/08/07 07:33:26;;;;;;;3.33;1.70;;;16.80;99.90;;;;;;947050;148;27296;-77
2023/08/07 07:35:52;;;;;;;2.45;1.60;;;16.80;99.90;;;;;;945257;148;27342;-75
2023/08/07 07:38:19;;;;;;;2.55;1.47;;;16.80;99.90;;;;;;946498;148;27303;-76
2023/08/07 07:40:45;;;;;;;1.40;1.30;;;16.90;99.90;;;;;;946380;148;27345;-75
2023/08/07 07:43:12;;;;;;;1.47;1.35;;;17.00;99.90;;;;;;946200;148;27311;-77
2023/08/07 07:45:39;;;;;;;1.40;1.30;;;17.00;99.90;;;;;;944716;149;27364;-75
2023/08/07 07:48:08;;;;;;;1.77;1.40;;;17.00;99.90;;;;;;938343;149;28770;-75
2023/08/07 07:50:32;;;;;;;3.60;1.70;;;17.10;99.90;;;;;;939181;149;27907;-77
2023/08/07 07:52:58;;;;;;;2.45;1.50;;;17.20;99.90;;;;;;939900;150;27359;-77
2023/08/07 07:55:25;;;;;;;2.33;1.80;;;17.20;99.90;;;;;;940984;149;27292;-77
2023/08/07 07:57:52;;;;;;;2.37;1.50;;;17.30;99.90;;;;;;939219;149;27344;-77
2023/08/07 08:00:18;;;;;;;2.87;1.45;;;17.40;99.90;;;;;;939294;149;27461;-77
2023/08/07 08:02:45;;;;;;;1.60;1.50;;;17.40;99.90;;;;;;939085;150;28069;-77
2023/08/07 08:05:12;;;;;;;2.37;1.57;;;17.50;99.90;;;;;;938639;150;27334;-77
2023/08/07 08:07:39;;;;;;;2.83;1.57;;;17.60;99.90;;;;;;940349;149;27332;-77
2023/08/07 08:10:05;;;;;;;3.42;1.95;;;17.60;99.90;;;;;;939309;149;27344;-77
2023/08/07 08:12:31;;;;;;;2.87;1.72;;;17.60;99.90;;;;;;937642;150;27637;-77
2023/08/07 08:14:58;;;;;;;1.50;1.40;;;17.70;99.90;;;;;;939705;150;27381;-77
2023/08/07 08:17:24;;;;;;;5.85;2.30;;;17.70;99.90;;;;;;938746;149;27361;-77
2023/08/07 08:19:51;;;;;;;2.58;1.60;;;17.80;99.90;;;;;;939449;150;27413;-77
2023/08/07 08:22:18;;;;;;;2.90;2.15;;;17.80;99.90;;;;;;938365;150;27910;-77
2023/08/07 08:24:44;;;;;;;4.03;1.75;;;17.90;99.90;;;;;;940439;149;27478;-77
2023/08/07 08:27:11;;;;;;;2.47;1.55;;;17.90;99.90;;;;;;940800;149;27367;-77
2023/08/07 08:29:37;;;;;;;2.47;1.62;;;18.00;99.90;;;;;;938484;150;27301;-77
2023/08/07 08:32:04;;;;;;;1.72;1.57;;;18.00;99.90;;;;;;940466;149;27733;-77
2023/08/07 08:34:30;;;;;;;3.00;1.80;;;18.10;99.90;;;;;;942356;148;27341;-77
2023/08/07 08:36:57;;;;;;;5.17;2.08;;;18.10;99.90;;;;;;927860;150;27354;-77
2023/08/07 08:39:24;;;;;;;1.47;1.32;;;18.20;99.90;;;;;;943271;148;27439;-77
2023/08/07 08:41:50;;;;;;;2.15;1.55;;;18.30;99.90;;;;;;942179;149;27437;-77
2023/08/07 08:44:17;;;;;;;4.60;1.92;;;18.40;99.90;;;;;;938752;149;27360;-77
2023/08/07 08:46:43;;;;;;;1.85;1.50;;;18.40;99.90;;;;;;932242;150;27381;-77
2023/08/07 08:49:10;;;;;;;1.75;1.42;;;18.50;99.90;;;;;;943694;149;27445;-77
2023/08/07 08:51:37;;;;;;;1.95;1.57;;;18.50;99.90;;;;;;930135;151;27313;-77
2023/08/07 08:54:03;;;;;;;3.55;1.65;;;18.50;99.90;;;;;;928512;151;27374;-77
2023/08/07 08:56:32;;;;;;;2.22;1.60;;;18.60;99.90;;;;;;937325;150;27441;-77
2023/08/07 08:58:59;;;;;;;3.15;1.52;;;18.70;99.90;;;;;;928124;151;27385;-77
2023/08/07 09:01:25;;;;;;;1.50;1.40;;;18.70;99.90;;;;;;939315;150;27279;-77
2023/08/07 09:03:52;;;;;;;1.50;1.40;;;18.70;99.90;;;;;;943423;149;27469;-77
2023/08/07 09:06:19;;;;;;;2.83;1.37;;;18.80;99.90;;;;;;926215;152;27386;-77
2023/08/07 09:08:45;;;;;;;2.00;1.50;;;18.90;99.90;;;;;;933522;151;27379;-77
2023/08/07 09:11:12;;;;;;;1.60;1.50;;;18.90;99.90;;;;;;929659;150;27305;-77
2023/08/07 09:13:38;;;;;;;3.67;1.52;;;18.90;99.90;;;;;;921210;151;27394;-77
2023/08/07 09:16:05;;;;;;;1.40;1.30;;;19.00;99.90;;;;;;926403;151;27476;-77
2023/08/07 09:18:32;;;;;;;2.30;1.77;;;19.00;99.90;;;;;;927765;151;27464;-77
2023/08/07 09:20:58;;;;;;;2.40;1.60;;;19.00;99.90;;;;;;943159;149;27416;-77
2023/08/07 09:23:25;;;;;;;3.62;1.80;;;19.00;99.90;;;;;;929633;151;27353;-77
2023/08/07 09:26:01;;;;;;;2.95;1.80;;;19.00;99.90;;;;;;945839;149;27444;-77
2023/08/07 09:28:27;;;;;;;1.92;1.40;;;18.90;99.90;;;;;;941075;150;27334;-77
2023/08/07 09:30:54;;;;;;;2.80;1.52;;;18.90;99.90;;;;;;940013;150;27267;-77
2023/08/07 09:33:26;;;;;;;1.87;1.45;;;18.80;99.90;;;;;;941105;151;27294;-77
2023/08/07 09:35:53;;;;;;;3.15;1.80;;;18.70;99.90;;;;;;943503;149;27356;-76
2023/08/07 09:38:19;;;;;;;3.33;1.60;;;18.60;99.90;;;;;;944618;149;27379;-76
2023/08/07 09:40:46;;;;;;;1.95;1.50;;;18.50;99.90;;;;;;944397;151;27426;-76
2023/08/07 09:43:12;;;;;;;5.53;1.90;;;18.50;99.90;;;;;;944165;149;27359;-76
2023/08/07 09:45:39;;;;;;;3.58;1.52;;;18.40;99.90;;;;;;943139;149;27347;-76
2023/08/07 09:48:08;;;;;;;2.45;1.70;;;18.40;99.90;;;;;;943690;148;27553;-76
2023/08/07 09:50:35;;;;;;;2.10;1.65;;;18.30;99.90;;;;;;942677;149;27361;-76
2023/08/07 09:53:01;;;;;;;2.08;1.82;;;18.30;99.90;;;;;;942143;149;27330;-76
2023/08/07 09:55:28;;;;;;;3.05;1.67;;;18.20;99.90;;;;;;942102;149;27367;-76
2023/08/07 09:57:54;;;;;;;2.83;1.67;;;18.20;99.90;;;;;;942340;149;27360;-76
2023/08/07 10:00:21;;;;;;;2.35;1.62;;;18.20;99.90;;;;;;941386;149;27325;-76
2023/08/07 10:02:47;;;;;;;2.58;1.87;;;18.20;99.90;;;;;;942448;149;27339;-76
2023/08/07 10:05:14;;;;;;;2.67;1.60;;;18.10;99.90;;;;;;941519;149;27434;-76
2023/08/07 10:07:41;;;;;;;2.55;1.90;;;18.10;99.90;;;;;;942527;149;27455;-76
2023/08/07 10:10:07;;;;;;;3.22;1.85;;;18.10;99.90;;;;;;941945;149;27380;-75
2023/08/07 10:12:34;;;;;;;3.33;1.75;;;18.10;99.90;;;;;;942015;149;27349;-76
2023/08/07 10:15:00;;;;;;;1.37;1.22;;;18.20;99.90;;;;;;940238;149;27354;-75
2023/08/07 10:17:27;;;;;;;4.28;2.10;;;18.20;99.90;;;;;;941620;149;27349;-75
2023/08/07 10:19:54;;;;;;;2.80;2.00;;;18.20;99.90;;;;;;942597;149;27365;-76
2023/08/07 10:22:20;;;;;;;3.67;2.00;;;18.20;99.90;;;;;;941624;149;27343;-76
2023/08/07 10:24:47;;;;;;;3.37;1.72;;;18.20;99.90;;;;;;942057;149;27335;-76
2023/08/07 10:27:13;;;;;;;2.60;1.80;;;18.20;99.90;;;;;;941252;149;27434;-76
2023/08/07 10:29:40;;;;;;;4.17;2.17;;;18.20;99.90;;;;;;942026;149;27366;-77
2023/08/07 10:32:07;;;;;;;2.02;1.65;;;18.30;99.90;;;;;;940525;149;28322;-76
2023/08/07 10:34:36;;;;;;;1.60;1.50;;;18.30;99.90;;;;;;942653;149;27334;-76
2023/08/07 10:37:02;;;;;;;1.62;1.40;;;18.30;99.90;;;;;;941488;149;27450;-75
2023/08/07 10:39:29;;;;;;;1.30;1.20;;;18.40;99.90;;;;;;941622;149;27377;-75
2023/08/07 10:41:56;;;;;;;1.42;1.27;;;18.50;99.90;;;;;;941698;149;27734;-76
2023/08/07 10:44:25;;;;;;;1.77;1.50;;;18.60;99.90;;;;;;940678;149;27326;-75
2023/08/07 10:46:54;;;;;;;1.45;1.35;;;18.60;99.90;;;;;;941467;149;27358;-76
2023/08/07 10:49:39;;;;;;;1.30;1.20;;;18.70;99.90;;;;;;930602;149;27409;-76
2023/08/07 10:52:09;;;;;;;1.50;1.40;;;18.80;99.90;;;;;;946261;149;27345;-76
2023/08/07 10:54:42;;;;;;;2.87;1.45;;;18.90;99.90;;;;;;944349;149;27441;-76
2023/08/07 10:57:05;;;;;;;1.30;1.20;;;18.90;99.90;;;;;;942640;149;27357;-76
2023/08/07 10:59:31;;;;;;;1.10;1.00;;;18.90;99.90;;;;;;929038;151;27372;-75
2023/08/07 11:01:58;;;;;;;2.92;1.70;;;18.90;99.90;;;;;;929796;151;27459;-76
2023/08/07 11:04:25;;;;;;;1.22;1.15;;;18.90;99.90;;;;;;925092;152;27785;-76
2023/08/07 11:06:51;;;;;;;1.40;1.27;;;18.80;99.90;;;;;;936344;151;27851;-76
2023/08/07 11:09:17;;;;;;;1.15;1.02;;;18.80;99.90;;;;;;936522;151;27466;-75
2023/08/07 11:11:47;;;;;;;1.85;1.50;;;18.70;99.90;;;;;;945343;149;27914;-76
2023/08/07 11:14:17;;;;;;;1.67;1.30;;;18.70;99.90;;;;;;928863;152;28706;-76
2023/08/07 11:16:43;;;;;;;1.55;1.20;;;18.70;99.90;;;;;;928005;152;27368;-76
2023/08/07 11:19:10;;;;;;;1.30;1.20;;;18.60;99.90;;;;;;929806;151;27448;-75
2023/08/07 11:21:36;;;;;;;2.33;1.37;;;18.60;99.90;;;;;;930001;151;27390;-76
2023/08/07 11:24:03;;;;;;;1.90;1.25;;;18.60;99.90;;;;;;924789;152;27442;-76
2023/08/07 11:26:30;;;;;;;2.12;1.50;;;18.60;99.90;;;;;;943624;151;27312;-74
2023/08/07 11:28:56;;;;;;;1.80;1.60;;;18.60;99.90;;;;;;943909;149;27315;-75
2023/08/07 11:31:24;;;;;;;2.40;1.37;;;18.60;99.90;;;;;;930196;151;27355;-76
2023/08/07 11:33:52;;;;;;;5.65;2.05;;;18.60;99.90;;;;;;930469;151;27447;-74
2023/08/07 11:36:19;;;;;;;2.10;1.30;;;18.60;99.90;;;;;;928540;151;27567;-74
2023/08/07 11:38:46;;;;;;;2.65;1.20;;;18.60;99.90;;;;;;940648;150;27334;-74
2023/08/07 11:41:12;;;;;;;1.47;1.20;;;18.60;99.90;;;;;;944712;149;27321;-75
2023/08/07 11:43:39;;;;;;;1.70;1.57;;;18.60;99.90;;;;;;930959;151;27323;-75
2023/08/07 11:46:05;;;;;;;2.17;1.67;;;18.60;99.90;;;;;;929526;151;27800;-74
2023/08/07 11:48:32;;;;;;;1.57;1.30;;;18.50;99.90;;;;;;927756;152;27372;-74
2023/08/07 11:50:58;;;;;;;1.50;1.40;;;18.50;99.90;;;;;;930133;151;27302;-74
2023/08/07 11:53:25;;;;;;;3.58;2.00;;;18.50;99.90;;;;;;929749;151;27354;-75
2023/08/07 11:55:58;;;;;;;2.10;1.22;;;18.50;99.90;;;;;;928834;151;27466;-74
2023/08/07 11:58:24;;;;;;;3.20;1.20;;;18.50;99.90;;;;;;929459;151;27479;-75
2023/08/07 12:00:51;;;;;;;3.65;1.70;;;18.40;99.90;;;;;;928233;152;27278;-74
2023/08/07 12:03:29;;;;;;;1.00;1.00;;;18.40;99.90;;;;;;936076;151;27356;-76
2023/08/07 12:05:56;;;;;;;2.05;1.50;;;18.40;99.90;;;;;;928211;151;27438;-74
2023/08/07 12:08:23;;;;;;;1.22;1.12;;;18.40;99.90;;;;;;929316;151;27506;-75
2023/08/07 12:10:52;;;;;;;2.15;1.50;;;18.30;99.90;;;;;;929513;151;27360;-74
2023/08/07 12:13:18;;;;;;;1.70;1.60;;;18.30;99.90;;;;;;929903;151;27357;-74
2023/08/07 12:15:45;;;;;;;1.50;1.12;;;18.20;99.90;;;;;;929908;151;27393;-74
2023/08/07 12:18:12;;;;;;;1.72;1.32;;;18.20;99.90;;;;;;925839;152;28605;-73
2023/08/07 12:20:38;;;;;;;2.12;1.45;;;18.10;99.90;;;;;;928963;151;27352;-74
2023/08/07 12:23:04;;;;;;;4.45;1.75;;;18.10;99.90;;;;;;927247;152;27340;-75
2023/08/07 12:25:31;;;;;;;1.17;1.12;;;18.10;99.90;;;;;;927836;152;27443;-75
2023/08/07 12:27:58;;;;;;;2.45;1.82;;;18.10;99.90;;;;;;927812;152;28199;-76
2023/08/07 12:30:24;;;;;;;2.47;2.10;;;18.10;99.90;;;;;;929900;151;27333;-76
2023/08/07 12:32:51;;;;;;;2.52;1.90;;;18.20;99.90;;;;;;929399;151;27385;-76
2023/08/07 12:35:17;;;;;;;2.65;1.98;;;18.20;99.90;;;;;;941583;149;27287;-75
2023/08/07 12:37:44;;;;;;;2.22;2.00;;;18.30;99.90;;;;;;944208;149;27706;-76
2023/08/07 12:40:11;;;;;;;1.70;1.57;;;18.40;99.90;;;;;;944258;149;27455;-75
2023/08/07 12:42:37;;;;;;;3.92;2.37;;;18.50;99.90;;;;;;944529;151;27273;-76
2023/08/07 12:45:04;;;;;;;3.52;2.08;;;18.60;99.90;;;;;;930364;151;27792;-76
2023/08/07 12:47:30;;;;;;;2.52;2.10;;;18.70;99.90;;;;;;929741;151;27345;-76
2023/08/07 12:49:57;;;;;;;2.37;1.80;;;18.80;99.90;;;;;;927571;151;27417;-76
2023/08/07 12:52:24;;;;;;;1.72;1.60;;;19.00;99.90;;;;;;944693;149;27313;-76